createdAt,value
2023-05-11T00:01:15.540Z,87.78
2023-05-11T00:04:19.683Z,87.35
2023-05-11T00:07:22.508Z,87.16
2023-05-11T00:10:25.222Z,87.08
2023-05-11T00:13:27.964Z,87.27
2023-05-11T00:16:31.066Z,87.12
2023-05-11T00:19:35.080Z,87.15
2023-05-11T00:22:37.735Z,86.76
2023-05-11T00:25:40.684Z,86.75
2023-05-11T00:28:43.380Z,87.03
2023-05-11T00:31:48.003Z,86.68
2023-05-11T00:34:52.083Z,86.76
2023-05-11T00:37:54.756Z,86.70
2023-05-11T00:40:57.403Z,86.83
2023-05-11T00:44:00.050Z,86.89
2023-05-11T00:47:03.062Z,86.85
2023-05-11T00:50:09.327Z,87.08
2023-05-11T00:53:13.589Z,87.06
2023-05-11T00:56:16.451Z,86.88
2023-05-11T00:59:19.770Z,86.79
2023-05-11T01:02:22.592Z,86.87
2023-05-11T01:05:33.226Z,87.05
2023-05-11T01:08:43.047Z,87.04
2023-05-11T01:11:52.668Z,86.94
2023-05-11T01:15:02.676Z,86.79
2023-05-11T01:18:16.206Z,86.70
2023-05-11T01:21:20.411Z,86.93
2023-05-11T01:24:38.643Z,86.91
2023-05-11T01:27:58.268Z,87.14
2023-05-11T01:31:10.040Z,87.02
2023-05-11T01:34:15.995Z,87.38
2023-05-11T01:37:22.518Z,87.08
2023-05-11T01:40:33.010Z,87.12
2023-05-11T01:43:37.730Z,87.15
2023-05-11T01:46:50.081Z,87.37
2023-05-11T01:49:54.700Z,87.39
2023-05-11T01:52:57.840Z,87.60
2023-05-11T01:56:03.009Z,87.52
2023-05-11T01:59:06.827Z,87.75
2023-05-11T02:02:12.274Z,87.62
2023-05-11T02:05:19.512Z,87.75
2023-05-11T02:08:23.077Z,87.52
2023-05-11T02:11:28.951Z,87.88
2023-05-11T02:14:34.943Z,87.86
2023-05-11T02:17:40.596Z,87.68
2023-05-11T02:20:45.539Z,87.89
2023-05-11T02:23:49.955Z,88.26
2023-05-11T02:26:53.199Z,88.38
2023-05-11T02:29:55.981Z,88.16
2023-05-11T02:33:07.643Z,87.99
2023-05-11T02:36:11.377Z,88.21
2023-05-11T02:39:18.402Z,88.37
2023-05-11T02:42:23.333Z,88.40
2023-05-11T02:45:32.040Z,88.26
2023-05-11T02:48:41.621Z,88.28
2023-05-11T02:51:46.858Z,88.31
2023-05-11T02:54:51.417Z,88.47
2023-05-11T02:57:55.188Z,88.78
2023-05-11T03:00:58.689Z,89.02
2023-05-11T03:04:05.730Z,88.65
2023-05-11T03:07:09.792Z,89.03
2023-05-11T03:10:12.525Z,89.40
2023-05-11T03:13:16.637Z,89.05
2023-05-11T03:16:21.260Z,89.19
2023-05-11T03:19:27.705Z,89.57
2023-05-11T03:22:32.675Z,89.41
2023-05-11T03:25:36.332Z,89.39
2023-05-11T03:28:40.045Z,89.34
2023-05-11T03:31:42.757Z,89.26
2023-05-11T03:34:46.852Z,89.38
2023-05-11T03:37:51.265Z,89.56
2023-05-11T03:40:55.884Z,89.48
2023-05-11T03:44:01.319Z,89.44
2023-05-11T03:47:05.520Z,89.58
2023-05-11T03:50:10.884Z,89.79
2023-05-11T03:53:16.710Z,89.80
2023-05-11T03:56:19.489Z,89.80
2023-05-11T03:59:22.323Z,89.59
2023-05-11T04:02:25.309Z,89.62
2023-05-11T04:05:29.418Z,89.54
2023-05-11T04:08:39.309Z,89.39
2023-05-11T04:11:41.930Z,89.45
2023-05-11T04:14:44.638Z,89.57
2023-05-11T04:17:47.373Z,89.71
2023-05-11T04:20:51.452Z,89.28
2023-05-11T04:23:54.099Z,89.26
2023-05-11T04:26:57.554Z,89.42
2023-05-11T04:30:00.239Z,89.24
2023-05-11T04:33:03.620Z,89.06
2023-05-11T04:36:11.195Z,89.00
2023-05-11T04:39:14.756Z,88.85
2023-05-11T04:42:18.045Z,88.95
2023-05-11T04:45:20.878Z,88.63
2023-05-11T04:48:23.556Z,88.65
2023-05-11T04:51:27.597Z,88.79
2023-05-11T04:54:31.140Z,88.81
2023-05-11T04:57:34.671Z,88.81
2023-05-11T05:00:37.489Z,88.52
2023-05-11T05:03:40.806Z,88.47
2023-05-11T05:06:44.877Z,88.51
2023-05-11T05:09:47.635Z,88.30
2023-05-11T05:12:50.455Z,88.37
2023-05-11T05:15:53.110Z,88.21
2023-05-11T05:18:55.877Z,88.05
2023-05-11T05:22:00.150Z,87.76
2023-05-11T05:25:03.028Z,87.81
2023-05-11T05:28:05.770Z,87.51
2023-05-11T05:31:08.522Z,87.41
2023-05-11T05:34:11.853Z,87.19
2023-05-11T05:37:17.231Z,87.35
2023-05-11T05:40:20.470Z,87.39
2023-05-11T05:43:23.416Z,86.96
2023-05-11T05:46:26.133Z,87.06
2023-05-11T05:49:28.873Z,86.80
2023-05-11T05:52:32.844Z,86.58
2023-05-11T05:55:35.520Z,86.08
2023-05-11T05:58:38.296Z,85.76
2023-05-11T06:01:45.565Z,85.53
2023-05-11T06:04:48.285Z,85.27
2023-05-11T06:08:08.457Z,84.92
2023-05-11T06:11:12.272Z,84.78
2023-05-11T06:14:15.062Z,84.47
2023-05-11T06:17:20.809Z,84.25
2023-05-11T06:20:24.291Z,83.68
2023-05-11T06:23:28.441Z,83.37
2023-05-11T06:26:31.111Z,83.41
2023-05-11T06:29:33.848Z,83.37
2023-05-11T06:32:36.560Z,82.98
2023-05-11T06:35:39.626Z,82.74
2023-05-11T06:38:43.783Z,82.62
2023-05-11T06:41:46.517Z,81.93
2023-05-11T06:44:49.210Z,81.58
2023-05-11T06:47:51.990Z,81.31
2023-05-11T06:50:54.708Z,80.87
2023-05-11T06:53:58.773Z,80.48
2023-05-11T06:57:03.579Z,80.17
2023-05-11T07:00:07.803Z,79.92
2023-05-11T07:03:10.541Z,79.94
2023-05-11T07:06:13.477Z,79.91
2023-05-11T07:09:17.656Z,79.02
2023-05-11T07:12:20.401Z,79.11
2023-05-11T07:15:23.482Z,78.36
2023-05-11T07:18:26.170Z,78.38
2023-05-11T07:21:28.917Z,77.51
2023-05-11T07:24:33.018Z,77.27
2023-05-11T07:27:35.828Z,77.16
2023-05-11T07:30:38.611Z,76.41
2023-05-11T07:33:41.311Z,76.42
2023-05-11T07:36:43.961Z,76.26
2023-05-11T07:39:48.083Z,76.06
2023-05-11T07:42:51.025Z,75.17
2023-05-11T07:45:59.912Z,74.97
2023-05-11T07:49:14.636Z,74.64
2023-05-11T07:52:23.115Z,74.08
2023-05-11T07:55:27.917Z,73.62
2023-05-11T07:58:30.653Z,72.83
2023-05-11T08:01:33.450Z,72.35
2023-05-11T08:04:36.416Z,72.44
2023-05-11T08:07:41.199Z,72.34
2023-05-11T08:10:45.961Z,71.56
2023-05-11T08:13:48.612Z,71.38
2023-05-11T08:16:52.519Z,70.96
2023-05-11T08:19:57.781Z,70.16
2023-05-11T08:23:04.111Z,69.92
2023-05-11T08:26:08.281Z,69.42
2023-05-11T08:29:12.548Z,69.13
2023-05-11T08:32:18.318Z,68.85
2023-05-11T08:35:21.710Z,68.45
2023-05-11T08:38:25.016Z,67.97
2023-05-11T08:41:29.702Z,67.87
2023-05-11T08:44:34.120Z,67.93
2023-05-11T08:47:38.007Z,67.81
2023-05-11T08:50:40.793Z,66.97
2023-05-11T08:53:43.553Z,67.07
2023-05-11T08:56:49.126Z,67.67
2023-05-11T08:59:53.095Z,67.42
2023-05-11T09:02:57.562Z,66.53
2023-05-11T09:06:02.752Z,66.44
2023-05-11T09:09:05.550Z,66.30
2023-05-11T09:12:10.861Z,65.94
2023-05-11T09:15:13.658Z,65.61
2023-05-11T09:18:18.763Z,64.46
2023-05-11T09:21:21.565Z,63.28
2023-05-11T09:24:24.296Z,63.54
2023-05-11T09:27:28.327Z,63.22
2023-05-11T09:30:30.985Z,62.34
2023-05-11T09:33:33.725Z,62.92
2023-05-11T09:36:36.449Z,62.73
2023-05-11T09:39:52.773Z,61.91
2023-05-11T09:43:03.636Z,61.60
2023-05-11T09:46:08.000Z,60.57
2023-05-11T09:49:11.956Z,59.48
2023-05-11T09:52:18.668Z,58.89
2023-05-11T09:55:27.601Z,59.13
2023-05-11T09:58:49.140Z,59.28
2023-05-11T10:01:51.894Z,59.63
2023-05-11T10:04:56.409Z,59.06
2023-05-11T10:08:00.133Z,57.99
2023-05-11T10:11:03.848Z,57.21
2023-05-11T10:14:09.862Z,56.83
2023-05-11T10:17:14.586Z,57.18
2023-05-11T10:20:17.932Z,57.01
2023-05-11T10:23:22.250Z,57.27
2023-05-11T10:26:26.500Z,56.14
2023-05-11T10:29:31.294Z,56.90
2023-05-11T10:32:37.947Z,57.12
2023-05-11T10:35:41.684Z,56.79
2023-05-11T10:38:46.781Z,56.83
2023-05-11T10:42:03.030Z,57.25
2023-05-11T10:45:17.012Z,56.69
2023-05-11T10:48:54.888Z,55.54
2023-05-11T10:52:17.298Z,53.83
2023-05-11T10:55:28.660Z,53.80
2023-05-11T10:58:47.083Z,55.07
2023-05-11T11:01:54.880Z,55.14
2023-05-11T11:04:58.933Z,55.49
2023-05-11T11:08:04.032Z,55.41
2023-05-11T11:11:29.939Z,56.01
2023-05-11T11:14:56.515Z,55.93
2023-05-11T11:18:24.659Z,55.12
2023-05-11T11:21:41.199Z,55.56
2023-05-11T11:24:45.902Z,55.36
2023-05-11T11:28:00.013Z,55.31
2023-05-11T11:31:24.408Z,54.71
2023-05-11T11:34:38.868Z,53.65
2023-05-11T11:38:02.120Z,53.76
2023-05-11T11:41:09.207Z,53.99
2023-05-11T11:44:21.983Z,52.79
2023-05-11T11:47:26.266Z,52.45
2023-05-11T11:50:30.781Z,53.41
2023-05-11T11:54:06.662Z,52.66
2023-05-11T11:57:44.134Z,53.20
2023-05-11T12:00:49.129Z,53.02
2023-05-11T12:04:12.953Z,52.32
2023-05-11T12:07:21.354Z,50.87
2023-05-11T12:10:24.217Z,50.59
2023-05-11T12:13:28.412Z,50.78
2023-05-11T12:16:33.222Z,50.54
2023-05-11T12:19:36.732Z,51.18
2023-05-11T12:22:41.184Z,51.81
2023-05-11T12:25:43.861Z,52.60
2023-05-11T12:28:49.684Z,52.11
2023-05-11T12:31:55.379Z,52.36
2023-05-11T12:34:59.227Z,52.87
2023-05-11T12:38:11.995Z,52.15
2023-05-11T12:41:21.829Z,51.48
2023-05-11T12:44:26.543Z,52.10
2023-05-11T12:47:32.816Z,52.90
2023-05-11T12:50:41.092Z,51.94
2023-05-11T12:53:45.114Z,52.15
2023-05-11T12:56:48.888Z,51.08
2023-05-11T13:00:07.274Z,50.49
2023-05-11T13:03:11.431Z,50.16
2023-05-11T13:06:15.748Z,51.81
2023-05-11T13:09:25.159Z,52.41
2023-05-11T13:12:32.043Z,55.27
2023-05-11T13:15:35.528Z,57.76
2023-05-11T13:18:38.566Z,58.78
2023-05-11T13:21:41.344Z,59.20
2023-05-11T13:24:45.549Z,62.33
2023-05-11T13:27:48.354Z,64.15
2023-05-11T13:30:52.318Z,64.38
2023-05-11T13:33:55.334Z,62.66
2023-05-11T13:36:58.050Z,62.63
2023-05-11T13:40:02.713Z,62.02
2023-05-11T13:43:05.760Z,62.12
2023-05-11T13:46:08.482Z,62.06
2023-05-11T13:49:11.363Z,63.57
2023-05-11T13:52:14.261Z,64.12
2023-05-11T13:55:20.227Z,64.96
2023-05-11T13:58:23.106Z,66.16
2023-05-11T14:01:26.456Z,66.99
2023-05-11T14:04:29.172Z,67.17
2023-05-11T14:07:45.601Z,67.15
2023-05-11T14:10:51.000Z,65.98
2023-05-11T14:13:53.909Z,66.44
2023-05-11T14:16:56.784Z,65.74
2023-05-11T14:19:59.459Z,64.27
2023-05-11T14:23:02.735Z,64.72
2023-05-11T14:26:06.826Z,64.70
2023-05-11T14:29:09.566Z,64.30
2023-05-11T14:32:19.977Z,63.91
2023-05-11T14:35:23.263Z,63.95
2023-05-11T14:38:25.951Z,63.15
2023-05-11T14:41:29.959Z,63.90
2023-05-11T14:44:32.854Z,63.37
2023-05-11T14:47:35.680Z,63.96
2023-05-11T14:50:38.780Z,64.44
2023-05-11T14:53:41.638Z,64.87
2023-05-11T14:56:51.241Z,64.58
2023-05-11T15:00:00.185Z,64.19
2023-05-11T15:03:04.122Z,63.95
2023-05-11T15:06:07.529Z,64.19
2023-05-11T15:09:10.330Z,64.04
2023-05-11T15:12:14.361Z,64.29
2023-05-11T15:15:18.258Z,64.50
2023-05-11T15:18:21.169Z,64.89
2023-05-11T15:21:23.862Z,65.08
2023-05-11T15:24:26.549Z,65.55
2023-05-11T15:27:31.130Z,64.85
2023-05-11T15:30:33.841Z,65.69
2023-05-11T15:33:36.609Z,66.94
2023-05-11T15:36:40.308Z,67.56
2023-05-11T15:39:43.128Z,68.12
2023-05-11T15:42:49.036Z,68.53
2023-05-11T15:45:51.785Z,68.96
2023-05-11T15:48:55.839Z,68.69
2023-05-11T15:52:00.292Z,69.70
2023-05-11T15:55:03.773Z,69.77
2023-05-11T15:58:09.195Z,69.68
2023-05-11T16:01:12.095Z,69.27
2023-05-11T16:04:14.807Z,69.20
2023-05-11T16:07:17.558Z,70.28
2023-05-11T16:10:20.534Z,71.51
2023-05-11T16:13:24.820Z,72.05
2023-05-11T16:16:28.723Z,72.21
2023-05-11T16:19:31.495Z,72.00
2023-05-11T16:22:36.040Z,72.22
2023-05-11T16:25:38.930Z,73.41
2023-05-11T16:28:43.746Z,74.48
2023-05-11T16:31:46.484Z,75.25
2023-05-11T16:34:49.469Z,75.91
2023-05-11T16:37:52.520Z,76.59
2023-05-11T16:40:55.361Z,77.12
2023-05-11T16:43:59.529Z,77.64
2023-05-11T16:47:02.194Z,77.92
2023-05-11T16:50:05.223Z,78.05
2023-05-11T16:53:08.278Z,78.30
2023-05-11T16:56:11.826Z,78.50
2023-05-11T16:59:16.113Z,78.49
2023-05-11T17:02:20.001Z,78.93
2023-05-11T17:05:23.137Z,79.04
2023-05-11T17:08:25.826Z,78.69
2023-05-11T17:11:29.343Z,78.88
2023-05-11T17:14:33.504Z,79.30
2023-05-11T17:17:36.912Z,79.70
2023-05-11T17:20:39.694Z,79.93
2023-05-11T17:23:43.525Z,80.34
2023-05-11T17:26:48.284Z,80.27
2023-05-11T17:29:52.932Z,80.20
2023-05-11T17:32:56.285Z,80.81
2023-05-11T17:35:59.211Z,80.83
2023-05-11T17:39:02.678Z,81.31
2023-05-11T17:42:05.732Z,81.49
2023-05-11T17:45:11.433Z,79.32
2023-05-11T17:48:14.171Z,81.53
2023-05-11T17:51:16.986Z,82.18
2023-05-11T17:54:19.782Z,82.90
2023-05-11T17:57:25.626Z,83.90
2023-05-11T18:00:30.092Z,85.24
2023-05-11T18:03:32.880Z,85.69
2023-05-11T18:06:36.325Z,86.38
2023-05-11T18:09:39.007Z,86.47
2023-05-11T18:12:42.428Z,86.93
2023-05-11T18:15:47.333Z,87.08
2023-05-11T18:18:50.123Z,87.09
2023-05-11T18:21:53.189Z,87.02
2023-05-11T18:24:55.886Z,87.21
2023-05-11T18:27:59.247Z,87.26
2023-05-11T18:31:04.028Z,87.28
2023-05-11T18:34:07.340Z,87.25
2023-05-11T18:37:10.206Z,87.38
2023-05-11T18:40:13.718Z,87.63
2023-05-11T18:43:16.439Z,87.40
2023-05-11T18:46:21.515Z,87.57
2023-05-11T18:49:24.769Z,87.70
2023-05-11T18:52:27.593Z,88.01
2023-05-11T18:55:35.469Z,88.08
2023-05-11T18:58:41.153Z,88.49
2023-05-11T19:01:48.021Z,88.27
2023-05-11T19:04:51.425Z,88.90
2023-05-11T19:07:54.207Z,88.96
2023-05-11T19:10:56.984Z,88.82
2023-05-11T19:13:59.700Z,88.86
2023-05-11T19:17:04.624Z,88.75
2023-05-11T19:20:09.397Z,89.06
2023-05-11T19:23:12.128Z,88.91
2023-05-11T19:26:14.970Z,89.28
2023-05-11T19:29:19.487Z,89.07
2023-05-11T19:32:23.885Z,89.32
2023-05-11T19:35:28.255Z,89.28
2023-05-11T19:38:31.110Z,89.21
2023-05-11T19:41:34.308Z,89.15
2023-05-11T19:44:43.211Z,88.86
2023-05-11T19:47:47.535Z,89.04
2023-05-11T19:50:50.283Z,89.40
2023-05-11T19:53:53.776Z,89.38
2023-05-11T19:56:59.809Z,89.31
2023-05-11T20:00:05.466Z,89.68
2023-05-11T20:03:09.635Z,89.78
2023-05-11T20:06:12.410Z,89.80
2023-05-11T20:09:15.077Z,89.78
2023-05-11T20:12:17.799Z,90.05
2023-05-11T20:15:21.138Z,90.15
2023-05-11T20:18:25.239Z,89.69
2023-05-11T20:21:28.175Z,90.02
2023-05-11T20:24:31.186Z,89.87
2023-05-11T20:27:33.946Z,90.34
2023-05-11T20:30:37.307Z,90.26
2023-05-11T20:36:53.707Z,90.69
2023-05-11T20:39:56.410Z,90.65
2023-05-11T20:42:59.092Z,90.31
2023-05-11T20:46:03.841Z,90.32
2023-05-11T20:49:08.025Z,90.45
2023-05-11T20:52:11.167Z,90.33
2023-05-11T20:55:13.870Z,90.64
2023-05-11T20:58:16.512Z,90.80
2023-05-11T21:01:19.363Z,90.84
2023-05-11T21:04:23.468Z,90.90
2023-05-11T21:07:28.169Z,91.02
2023-05-11T21:10:30.913Z,90.83
2023-05-11T21:13:33.548Z,90.82
2023-05-11T21:16:36.194Z,90.88
2023-05-11T21:19:40.201Z,91.05
2023-05-11T21:22:42.848Z,90.91
2023-05-11T21:25:45.634Z,90.68
2023-05-11T21:28:48.250Z,90.93
2023-05-11T21:31:50.943Z,91.07
2023-05-11T21:34:55.084Z,90.91
2023-05-11T21:37:57.732Z,91.01
2023-05-11T21:41:00.454Z,91.35
2023-05-11T21:44:03.143Z,90.86
2023-05-11T21:47:06.507Z,90.95
2023-05-11T21:50:11.764Z,90.94
2023-05-11T21:53:14.454Z,90.93
2023-05-11T21:56:17.267Z,90.90
2023-05-11T21:59:20.186Z,90.81
2023-05-11T22:02:22.968Z,91.25
2023-05-11T22:05:27.046Z,91.25
2023-05-11T22:08:29.788Z,91.01
2023-05-11T22:11:34.605Z,91.35
2023-05-11T22:14:37.315Z,91.43
2023-05-11T22:17:40.442Z,91.35
2023-05-11T22:20:44.516Z,91.78
2023-05-11T22:23:47.264Z,91.46
2023-05-11T22:26:49.913Z,91.79
2023-05-11T22:29:53.217Z,91.77
2023-05-11T22:32:55.946Z,92.10
2023-05-11T22:35:59.974Z,92.14
2023-05-11T22:39:02.815Z,91.82
2023-05-11T22:42:05.766Z,92.14
2023-05-11T22:45:09.594Z,91.89
2023-05-11T22:48:12.315Z,92.18
2023-05-11T22:51:16.643Z,92.01
2023-05-11T22:54:19.358Z,92.13
2023-05-11T22:57:24.147Z,92.23
2023-05-11T23:00:27.408Z,92.65
2023-05-11T23:03:30.288Z,93.08
2023-05-11T23:06:34.606Z,93.24
2023-05-11T23:09:37.317Z,93.91
2023-05-11T23:12:40.184Z,94.68
2023-05-11T23:15:42.869Z,94.79
2023-05-11T23:18:46.922Z,95.35
2023-05-11T23:21:51.194Z,95.64
2023-05-11T23:24:56.371Z,96.18
2023-05-11T23:27:59.248Z,96.46
2023-05-11T23:31:02.519Z,97.08
2023-05-11T23:34:05.193Z,96.95
2023-05-11T23:37:09.304Z,97.10
2023-05-11T23:40:12.602Z,97.03
2023-05-11T23:43:15.730Z,97.27
2023-05-11T23:46:18.413Z,97.52
2023-05-11T23:49:21.076Z,97.55
2023-05-11T23:52:25.276Z,97.58
2023-05-11T23:55:27.937Z,97.90
2023-05-11T23:58:30.657Z,97.99
